Poplar, Wisconsin
Current Conditions -  °F | °C
As of 8:33 AM on Saturday 25 Oct 2014 (Local Time) from KDYT Reporting Station
Clear Clear  
Wind Chill: 52°   Ceiling: Unl
Heat Index: 52°   Visibility: 10mi
Dew Point: 36°   Wind: 13mph
Humidity: 54%   Direction: 260°W
Pressure: 29.91"   Gusts: 21mph
Location:  46.58°N, 91.8°W
Report Text: KDYT 251333Z AUTO 26011G18KT 10SM CLR 11/02 A2991 RMK AO2
Loading
Personal Weather Stations






























Interactive Weather Map
Tropical Storm Tracking
New forecast layout! Learn more

10-Day Weather Forecast

Advertisements
Track Severe Weather on mobile